sensor_id;sensor_type;location;lat;lon;timestamp;temperature;humidity
14521;DHT22;7347;50.844;4.490;2023-07-29T08:27:06;25.00;99.90
14521;DHT22;7347;50.844;4.490;2023-07-29T08:29:32;25.10;99.90
14521;DHT22;7347;50.844;4.490;2023-07-29T08:31:59;24.60;99.90
14521;DHT22;7347;50.844;4.490;2023-07-29T08:34:26;24.40;99.90
14521;DHT22;7347;50.844;4.490;2023-07-29T08:36:53;24.50;99.90
14521;DHT22;7347;50.844;4.490;2023-07-29T08:39:19;24.80;99.90
14521;DHT22;7347;50.844;4.490;2023-07-29T08:41:53;25.10;99.90
14521;DHT22;7347;50.844;4.490;2023-07-29T08:44:23;25.20;99.90
14521;DHT22;7347;50.844;4.490;2023-07-29T08:46:52;25.40;99.90
14521;DHT22;7347;50.844;4.490;2023-07-29T08:49:19;25.90;99.90
14521;DHT22;7347;50.844;4.490;2023-07-29T08:54:19;26.50;99.90
14521;DHT22;7347;50.844;4.490;2023-07-29T08:56:46;26.70;99.90
14521;DHT22;7347;50.844;4.490;2023-07-29T08:59:13;26.10;99.90
14521;DHT22;7347;50.844;4.490;2023-07-29T09:01:42;26.00;99.90
14521;DHT22;7347;50.844;4.490;2023-07-29T09:04:09;25.90;99.90
14521;DHT22;7347;50.844;4.490;2023-07-29T09:06:36;26.40;99.90
14521;DHT22;7347;50.844;4.490;2023-07-29T09:09:04;27.30;99.90
14521;DHT22;7347;50.844;4.490;2023-07-29T09:11:33;28.00;99.90
14521;DHT22;7347;50.844;4.490;2023-07-29T09:14:00;28.50;99.90
14521;DHT22;7347;50.844;4.490;2023-07-29T09:16:26;28.50;99.90
14521;DHT22;7347;50.844;4.490;2023-07-29T09:18:53;29.20;99.90
14521;DHT22;7347;50.844;4.490;2023-07-29T09:21:23;29.40;99.90
14521;DHT22;7347;50.844;4.490;2023-07-29T09:23:50;28.50;99.90
14521;DHT22;7347;50.844;4.490;2023-07-29T09:26:22;27.90;99.90
14521;DHT22;7347;50.844;4.490;2023-07-29T09:28:53;27.90;99.90
14521;DHT22;7347;50.844;4.490;2023-07-29T09:31:21;27.60;99.90
14521;DHT22;7347;50.844;4.490;2023-07-29T09:33:48;27.30;99.90
14521;DHT22;7347;50.844;4.490;2023-07-29T09:36:15;26.70;99.90
14521;DHT22;7347;50.844;4.490;2023-07-29T09:38:44;26.60;99.90
14521;DHT22;7347;50.844;4.490;2023-07-29T09:41:12;26.70;99.90
14521;DHT22;7347;50.844;4.490;2023-07-29T09:43:39;26.80;99.90
14521;DHT22;7347;50.844;4.490;2023-07-29T09:46:07;26.90;99.90
14521;DHT22;7347;50.844;4.490;2023-07-29T09:48:35;26.70;99.90
14521;DHT22;7347;50.844;4.490;2023-07-29T09:51:10;26.80;99.90
14521;DHT22;7347;50.844;4.490;2023-07-29T09:53:40;26.70;99.90
14521;DHT22;7347;50.844;4.490;2023-07-29T09:56:08;26.30;99.90
14521;DHT22;7347;50.844;4.490;2023-07-29T09:58:35;26.40;99.90
14521;DHT22;7347;50.844;4.490;2023-07-29T10:01:03;26.00;99.90
14521;DHT22;7347;50.844;4.490;2023-07-29T10:03:32;25.70;99.90
14521;DHT22;7347;50.844;4.490;2023-07-29T10:06:00;25.40;99.90
14521;DHT22;7347;50.844;4.490;2023-07-29T10:08:29;25.30;99.90
14521;DHT22;7347;50.844;4.490;2023-07-29T10:10:58;25.80;99.90
14521;DHT22;7347;50.844;4.490;2023-07-29T10:13:26;26.00;99.90
14521;DHT22;7347;50.844;4.490;2023-07-29T10:15:54;26.00;99.90
14521;DHT22;7347;50.844;4.490;2023-07-29T10:18:22;25.80;99.90
14521;DHT22;7347;50.844;4.490;2023-07-29T10:20:51;25.60;99.90
14521;DHT22;7347;50.844;4.490;2023-07-29T10:23:18;25.50;99.90
14521;DHT22;7347;50.844;4.490;2023-07-29T10:25:49;25.10;99.90
14521;DHT22;7347;50.844;4.490;2023-07-29T10:28:18;24.90;99.90
14521;DHT22;7347;50.844;4.490;2023-07-29T10:30:47;24.90;99.90
14521;DHT22;7347;50.844;4.490;2023-07-29T10:33:14;24.60;99.90
14521;DHT22;7347;50.844;4.490;2023-07-29T10:35:41;24.10;99.90
14521;DHT22;7347;50.844;4.490;2023-07-29T10:38:10;23.80;99.90
14521;DHT22;7347;50.844;4.490;2023-07-29T10:40:45;23.40;99.90
14521;DHT22;7347;50.844;4.490;2023-07-29T10:43:18;22.70;99.90
14521;DHT22;7347;50.844;4.490;2023-07-29T10:45:45;22.20;99.90
14521;DHT22;7347;50.844;4.490;2023-07-29T10:48:13;22.00;99.90
14521;DHT22;7347;50.844;4.490;2023-07-29T10:50:39;21.80;99.90
14521;DHT22;7347;50.844;4.490;2023-07-29T10:53:06;21.80;99.90
14521;DHT22;7347;50.844;4.490;2023-07-29T10:55:35;21.90;99.90
14521;DHT22;7347;50.844;4.490;2023-07-29T10:58:07;22.00;99.90
14521;DHT22;7347;50.844;4.490;2023-07-29T11:00:35;22.00;99.90
14521;DHT22;7347;50.844;4.490;2023-07-29T11:03:03;22.20;99.90
14521;DHT22;7347;50.844;4.490;2023-07-29T11:05:45;22.50;99.90
14521;DHT22;7347;50.844;4.490;2023-07-29T11:08:20;22.90;99.90
14521;DHT22;7347;50.844;4.490;2023-07-29T11:11:04;23.00;99.90
14521;DHT22;7347;50.844;4.490;2023-07-29T11:13:32;23.20;99.90
14521;DHT22;7347;50.844;4.490;2023-07-29T11:15:59;23.30;99.90
14521;DHT22;7347;50.844;4.490;2023-07-29T11:18:28;23.30;99.90
14521;DHT22;7347;50.844;4.490;2023-07-29T11:20:56;23.40;99.90
14521;DHT22;7347;50.844;4.490;2023-07-29T11:23:31;23.50;99.90
14521;DHT22;7347;50.844;4.490;2023-07-29T11:25:59;23.50;99.90
14521;DHT22;7347;50.844;4.490;2023-07-29T11:28:27;23.40;99.90
14521;DHT22;7347;50.844;4.490;2023-07-29T11:30:55;23.50;99.90
14521;DHT22;7347;50.844;4.490;2023-07-29T11:33:23;23.50;99.90
14521;DHT22;7347;50.844;4.490;2023-07-29T11:35:50;23.40;99.90
14521;DHT22;7347;50.844;4.490;2023-07-29T11:38:19;23.30;99.90
14521;DHT22;7347;50.844;4.490;2023-07-29T11:40:54;23.30;99.90
14521;DHT22;7347;50.844;4.490;2023-07-29T11:43:21;23.30;99.90
14521;DHT22;7347;50.844;4.490;2023-07-29T11:45:51;23.30;99.90
14521;DHT22;7347;50.844;4.490;2023-07-29T11:48:18;23.20;99.90
14521;DHT22;7347;50.844;4.490;2023-07-29T11:50:45;23.10;99.90
14521;DHT22;7347;50.844;4.490;2023-07-29T11:53:12;23.10;99.90
14521;DHT22;7347;50.844;4.490;2023-07-29T11:55:39;23.40;99.90
14521;DHT22;7347;50.844;4.490;2023-07-29T11:58:06;23.90;99.90
14521;DHT22;7347;50.844;4.490;2023-07-29T12:00:33;24.20;99.90
14521;DHT22;7347;50.844;4.490;2023-07-29T12:03:02;24.40;99.90
14521;DHT22;7347;50.844;4.490;2023-07-29T12:05:29;24.60;99.90
14521;DHT22;7347;50.844;4.490;2023-07-29T12:07:56;24.60;99.90
14521;DHT22;7347;50.844;4.490;2023-07-29T12:10:25;24.70;99.90
14521;DHT22;7347;50.844;4.490;2023-07-29T12:12:52;24.60;99.90
14521;DHT22;7347;50.844;4.490;2023-07-29T12:15:25;24.40;99.90
14521;DHT22;7347;50.844;4.490;2023-07-29T12:17:54;24.40;99.90
14521;DHT22;7347;50.844;4.490;2023-07-29T12:20:24;24.30;99.90
14521;DHT22;7347;50.844;4.490;2023-07-29T12:22:56;24.00;99.90
14521;DHT22;7347;50.844;4.490;2023-07-29T12:25:23;23.50;99.90
14521;DHT22;7347;50.844;4.490;2023-07-29T12:27:50;23.50;99.90
14521;DHT22;7347;50.844;4.490;2023-07-29T12:30:20;23.40;99.90
14521;DHT22;7347;50.844;4.490;2023-07-29T12:32:48;23.30;99.90
14521;DHT22;7347;50.844;4.490;2023-07-29T12:35:15;23.30;99.90
14521;DHT22;7347;50.844;4.490;2023-07-29T12:37:43;23.30;99.90
14521;DHT22;7347;50.844;4.490;2023-07-29T12:40:23;23.20;99.90
14521;DHT22;7347;50.844;4.490;2023-07-29T12:42:50;22.90;99.90
14521;DHT22;7347;50.844;4.490;2023-07-29T12:45:17;22.60;99.90
14521;DHT22;7347;50.844;4.490;2023-07-29T12:47:44;22.20;99.90
14521;DHT22;7347;50.844;4.490;2023-07-29T12:50:11;22.10;99.90
14521;DHT22;7347;50.844;4.490;2023-07-29T12:52:38;22.10;99.90
14521;DHT22;7347;50.844;4.490;2023-07-29T12:55:07;22.20;99.90
14521;DHT22;7347;50.844;4.490;2023-07-29T12:57:39;22.30;99.90
14521;DHT22;7347;50.844;4.490;2023-07-29T13:00:07;22.20;99.90
14521;DHT22;7347;50.844;4.490;2023-07-29T13:02:34;22.10;99.90
14521;DHT22;7347;50.844;4.490;2023-07-29T13:05:01;22.20;99.90
14521;DHT22;7347;50.844;4.490;2023-07-29T13:07:28;22.30;99.90
14521;DHT22;7347;50.844;4.490;2023-07-29T13:09:55;22.40;99.90
14521;DHT22;7347;50.844;4.490;2023-07-29T13:12:23;22.70;99.90
14521;DHT22;7347;50.844;4.490;2023-07-29T13:14:50;22.80;99.90
14521;DHT22;7347;50.844;4.490;2023-07-29T13:17:16;23.10;99.90
14521;DHT22;7347;50.844;4.490;2023-07-29T13:19:43;23.30;99.90
14521;DHT22;7347;50.844;4.490;2023-07-29T13:22:10;23.30;99.90
14521;DHT22;7347;50.844;4.490;2023-07-29T13:24:37;23.30;99.90
14521;DHT22;7347;50.844;4.490;2023-07-29T13:27:04;23.10;99.90
14521;DHT22;7347;50.844;4.490;2023-07-29T13:29:32;23.20;99.90
14521;DHT22;7347;50.844;4.490;2023-07-29T13:31:59;23.30;99.90
14521;DHT22;7347;50.844;4.490;2023-07-29T13:34:26;23.50;99.90
14521;DHT22;7347;50.844;4.490;2023-07-29T13:36:53;23.70;99.90
14521;DHT22;7347;50.844;4.490;2023-07-29T13:39:20;23.80;99.90
14521;DHT22;7347;50.844;4.490;2023-07-29T13:41:46;23.90;99.90
14521;DHT22;7347;50.844;4.490;2023-07-29T13:44:13;24.10;99.90
14521;DHT22;7347;50.844;4.490;2023-07-29T13:46:41;24.30;99.90
14521;DHT22;7347;50.844;4.490;2023-07-29T13:49:08;24.40;99.90
14521;DHT22;7347;50.844;4.490;2023-07-29T13:51:35;24.60;99.90
14521;DHT22;7347;50.844;4.490;2023-07-29T13:54:02;24.50;99.90
14521;DHT22;7347;50.844;4.490;2023-07-29T13:56:29;24.50;99.90
14521;DHT22;7347;50.844;4.490;2023-07-29T13:58:56;24.40;99.90
14521;DHT22;7347;50.844;4.490;2023-07-29T14:01:23;24.50;99.90
14521;DHT22;7347;50.844;4.490;2023-07-29T14:03:51;24.60;99.90
14521;DHT22;7347;50.844;4.490;2023-07-29T14:06:18;24.40;99.90
14521;DHT22;7347;50.844;4.490;2023-07-29T14:08:44;24.40;99.90
14521;DHT22;7347;50.844;4.490;2023-07-29T14:11:11;24.30;99.90
14521;DHT22;7347;50.844;4.490;2023-07-29T14:13:38;24.30;99.90
14521;DHT22;7347;50.844;4.490;2023-07-29T14:16:05;24.40;99.90
14521;DHT22;7347;50.844;4.490;2023-07-29T14:18:32;24.60;99.90
14521;DHT22;7347;50.844;4.490;2023-07-29T14:21:00;24.60;99.90
14521;DHT22;7347;50.844;4.490;2023-07-29T14:23:26;24.70;99.90
14521;DHT22;7347;50.844;4.490;2023-07-29T14:25:53;24.70;99.90
14521;DHT22;7347;50.844;4.490;2023-07-29T14:28:20;24.60;99.90
14521;DHT22;7347;50.844;4.490;2023-07-29T14:30:47;24.60;99.90
14521;DHT22;7347;50.844;4.490;2023-07-29T14:33:14;24.60;99.90
14521;DHT22;7347;50.844;4.490;2023-07-29T14:35:41;24.50;99.90
14521;DHT22;7347;50.844;4.490;2023-07-29T14:38:09;24.60;99.90
14521;DHT22;7347;50.844;4.490;2023-07-29T14:40:36;24.60;99.90
14521;DHT22;7347;50.844;4.490;2023-07-29T14:43:02;24.60;99.90
14521;DHT22;7347;50.844;4.490;2023-07-29T14:45:29;24.80;99.90
14521;DHT22;7347;50.844;4.490;2023-07-29T14:47:56;24.80;99.90
14521;DHT22;7347;50.844;4.490;2023-07-29T14:50:23;24.60;99.90
14521;DHT22;7347;50.844;4.490;2023-07-29T14:52:50;24.40;99.90
14521;DHT22;7347;50.844;4.490;2023-07-29T14:55:18;24.40;99.90
14521;DHT22;7347;50.844;4.490;2023-07-29T14:57:46;24.50;99.90
14521;DHT22;7347;50.844;4.490;2023-07-29T15:00:13;24.50;99.90
14521;DHT22;7347;50.844;4.490;2023-07-29T15:02:40;24.40;99.90
14521;DHT22;7347;50.844;4.490;2023-07-29T15:05:08;24.40;99.90
14521;DHT22;7347;50.844;4.490;2023-07-29T15:07:35;24.50;99.90
14521;DHT22;7347;50.844;4.490;2023-07-29T15:10:02;24.80;99.90
14521;DHT22;7347;50.844;4.490;2023-07-29T15:12:30;24.60;99.90
14521;DHT22;7347;50.844;4.490;2023-07-29T15:14:57;24.60;99.90
14521;DHT22;7347;50.844;4.490;2023-07-29T15:17:24;24.50;99.90
14521;DHT22;7347;50.844;4.490;2023-07-29T15:19:50;24.60;99.90
14521;DHT22;7347;50.844;4.490;2023-07-29T15:22:17;24.70;99.90
14521;DHT22;7347;50.844;4.490;2023-07-29T15:24:44;24.90;99.90
14521;DHT22;7347;50.844;4.490;2023-07-29T15:27:12;24.90;99.90
14521;DHT22;7347;50.844;4.490;2023-07-29T15:29:40;24.90;99.90
14521;DHT22;7347;50.844;4.490;2023-07-29T15:32:07;24.90;99.90
14521;DHT22;7347;50.844;4.490;2023-07-29T15:34:34;24.80;99.90
14521;DHT22;7347;50.844;4.490;2023-07-29T15:37:02;25.00;99.90
14521;DHT22;7347;50.844;4.490;2023-07-29T15:39:28;24.90;99.90
14521;DHT22;7347;50.844;4.490;2023-07-29T15:41:55;24.60;99.90
14521;DHT22;7347;50.844;4.490;2023-07-29T15:44:22;24.40;99.90
14521;DHT22;7347;50.844;4.490;2023-07-29T15:46:50;24.10;99.90
14521;DHT22;7347;50.844;4.490;2023-07-29T15:49:18;24.00;99.90
14521;DHT22;7347;50.844;4.490;2023-07-29T15:51:45;23.70;99.90
14521;DHT22;7347;50.844;4.490;2023-07-29T15:54:11;23.70;99.90
14521;DHT22;7347;50.844;4.490;2023-07-29T15:56:38;23.70;99.90
14521;DHT22;7347;50.844;4.490;2023-07-29T15:59:06;23.90;99.90
14521;DHT22;7347;50.844;4.490;2023-07-29T16:01:33;24.00;99.90
14521;DHT22;7347;50.844;4.490;2023-07-29T16:04:01;24.00;99.90
14521;DHT22;7347;50.844;4.490;2023-07-29T16:06:28;23.90;99.90
14521;DHT22;7347;50.844;4.490;2023-07-29T16:08:55;23.80;99.90
14521;DHT22;7347;50.844;4.490;2023-07-29T16:11:22;23.80;99.90
14521;DHT22;7347;50.844;4.490;2023-07-29T16:13:49;23.80;99.90
14521;DHT22;7347;50.844;4.490;2023-07-29T16:16:15;23.90;99.90
14521;DHT22;7347;50.844;4.490;2023-07-29T16:18:42;23.90;99.90
14521;DHT22;7347;50.844;4.490;2023-07-29T16:21:10;23.90;99.90
14521;DHT22;7347;50.844;4.490;2023-07-29T16:23:37;24.00;99.90
14521;DHT22;7347;50.844;4.490;2023-07-29T16:26:04;23.90;99.90
14521;DHT22;7347;50.844;4.490;2023-07-29T16:28:31;23.80;99.90
14521;DHT22;7347;50.844;4.490;2023-07-29T16:30:57;23.70;99.90
14521;DHT22;7347;50.844;4.490;2023-07-29T16:33:24;23.60;99.90
14521;DHT22;7347;50.844;4.490;2023-07-29T16:35:51;23.70;99.90
14521;DHT22;7347;50.844;4.490;2023-07-29T16:38:19;23.80;99.90
14521;DHT22;7347;50.844;4.490;2023-07-29T16:40:46;24.00;99.90
14521;DHT22;7347;50.844;4.490;2023-07-29T16:43:13;24.00;99.90
14521;DHT22;7347;50.844;4.490;2023-07-29T16:45:40;23.90;99.90
14521;DHT22;7347;50.844;4.490;2023-07-29T16:48:06;23.80;99.90
14521;DHT22;7347;50.844;4.490;2023-07-29T16:50:33;23.80;99.90
14521;DHT22;7347;50.844;4.490;2023-07-29T16:53:00;23.80;99.90
14521;DHT22;7347;50.844;4.490;2023-07-29T16:55:29;23.80;99.90
14521;DHT22;7347;50.844;4.490;2023-07-29T16:57:56;23.80;99.90
14521;DHT22;7347;50.844;4.490;2023-07-29T17:00:23;23.70;99.90
14521;DHT22;7347;50.844;4.490;2023-07-29T17:02:50;23.80;99.90
14521;DHT22;7347;50.844;4.490;2023-07-29T17:05:16;23.60;99.90
14521;DHT22;7347;50.844;4.490;2023-07-29T17:07:43;23.60;99.90
14521;DHT22;7347;50.844;4.490;2023-07-29T17:10:10;23.60;99.90
14521;DHT22;7347;50.844;4.490;2023-07-29T17:12:38;23.50;99.90
14521;DHT22;7347;50.844;4.490;2023-07-29T17:15:06;23.40;99.90
14521;DHT22;7347;50.844;4.490;2023-07-29T17:17:33;23.50;99.90
14521;DHT22;7347;50.844;4.490;2023-07-29T17:20:00;23.50;99.90
14521;DHT22;7347;50.844;4.490;2023-07-29T17:22:27;23.40;99.90
14521;DHT22;7347;50.844;4.490;2023-07-29T17:24:56;23.30;99.90
14521;DHT22;7347;50.844;4.490;2023-07-29T17:27:23;23.30;99.90
14521;DHT22;7347;50.844;4.490;2023-07-29T17:29:51;23.20;99.90
14521;DHT22;7347;50.844;4.490;2023-07-29T17:32:18;23.20;99.90
14521;DHT22;7347;50.844;4.490;2023-07-29T17:34:45;23.10;99.90
14521;DHT22;7347;50.844;4.490;2023-07-29T17:37:12;23.00;99.90
14521;DHT22;7347;50.844;4.490;2023-07-29T17:39:39;22.90;99.90
14521;DHT22;7347;50.844;4.490;2023-07-29T17:42:06;22.70;99.90
14521;DHT22;7347;50.844;4.490;2023-07-29T17:44:35;22.70;99.90
14521;DHT22;7347;50.844;4.490;2023-07-29T17:47:03;22.80;99.90
14521;DHT22;7347;50.844;4.490;2023-07-29T17:49:30;22.90;99.90
14521;DHT22;7347;50.844;4.490;2023-07-29T17:51:57;22.90;99.90
14521;DHT22;7347;50.844;4.490;2023-07-29T17:54:24;22.90;99.90
14521;DHT22;7347;50.844;4.490;2023-07-29T17:56:50;22.90;99.90
14521;DHT22;7347;50.844;4.490;2023-07-29T17:59:17;22.90;99.90
14521;DHT22;7347;50.844;4.490;2023-07-29T18:01:44;22.90;99.90
14521;DHT22;7347;50.844;4.490;2023-07-29T18:04:15;22.80;99.90
14521;DHT22;7347;50.844;4.490;2023-07-29T18:06:42;22.90;99.90
14521;DHT22;7347;50.844;4.490;2023-07-29T18:09:09;22.80;99.90
14521;DHT22;7347;50.844;4.490;2023-07-29T18:11:36;22.70;99.90
14521;DHT22;7347;50.844;4.490;2023-07-29T18:14:06;22.70;99.90
14521;DHT22;7347;50.844;4.490;2023-07-29T18:16:33;22.60;99.90
14521;DHT22;7347;50.844;4.490;2023-07-29T18:19:03;22.60;99.90
14521;DHT22;7347;50.844;4.490;2023-07-29T18:21:31;22.70;99.90
14521;DHT22;7347;50.844;4.490;2023-07-29T18:23:58;22.50;99.90
14521;DHT22;7347;50.844;4.490;2023-07-29T18:26:25;22.40;99.90
14521;DHT22;7347;50.844;4.490;2023-07-29T18:28:52;22.20;99.90
14521;DHT22;7347;50.844;4.490;2023-07-29T18:31:18;22.10;99.90
14521;DHT22;7347;50.844;4.490;2023-07-29T18:33:45;22.10;99.90
14521;DHT22;7347;50.844;4.490;2023-07-29T18:36:12;22.00;99.90
14521;DHT22;7347;50.844;4.490;2023-07-29T18:38:42;22.00;99.90
14521;DHT22;7347;50.844;4.490;2023-07-29T18:41:08;21.90;99.90
14521;DHT22;7347;50.844;4.490;2023-07-29T18:43:35;22.00;99.90
14521;DHT22;7347;50.844;4.490;2023-07-29T18:46:02;22.00;99.90
14521;DHT22;7347;50.844;4.490;2023-07-29T18:48:29;21.90;99.90
14521;DHT22;7347;50.844;4.490;2023-07-29T18:50:56;21.90;99.90
14521;DHT22;7347;50.844;4.490;2023-07-29T18:53:22;21.80;99.90
14521;DHT22;7347;50.844;4.490;2023-07-29T18:55:50;21.80;99.90
14521;DHT22;7347;50.844;4.490;2023-07-29T18:58:18;21.70;99.90
14521;DHT22;7347;50.844;4.490;2023-07-29T19:00:45;21.70;99.90
14521;DHT22;7347;50.844;4.490;2023-07-29T19:03:14;21.60;99.90
14521;DHT22;7347;50.844;4.490;2023-07-29T19:05:41;21.50;99.90
14521;DHT22;7347;50.844;4.490;2023-07-29T19:08:08;21.50;99.90
14521;DHT22;7347;50.844;4.490;2023-07-29T19:10:36;21.30;99.90
14521;DHT22;7347;50.844;4.490;2023-07-29T19:13:05;21.20;99.90
14521;DHT22;7347;50.844;4.490;2023-07-29T19:15:31;21.10;99.90
14521;DHT22;7347;50.844;4.490;2023-07-29T19:17:58;21.00;99.90
14521;DHT22;7347;50.844;4.490;2023-07-29T19:20:25;21.00;99.90
14521;DHT22;7347;50.844;4.490;2023-07-29T19:22:52;20.90;99.90
14521;DHT22;7347;50.844;4.490;2023-07-29T19:25:19;20.90;99.90
14521;DHT22;7347;50.844;4.490;2023-07-29T19:27:45;20.90;99.90
14521;DHT22;7347;50.844;4.490;2023-07-29T19:30:14;20.80;99.90
14521;DHT22;7347;50.844;4.490;2023-07-29T19:32:41;20.80;99.90
14521;DHT22;7347;50.844;4.490;2023-07-29T19:35:07;20.70;99.90
14521;DHT22;7347;50.844;4.490;2023-07-29T19:37:34;20.60;99.90
14521;DHT22;7347;50.844;4.490;2023-07-29T19:40:01;20.60;99.90
14521;DHT22;7347;50.844;4.490;2023-07-29T19:42:28;20.50;99.90
14521;DHT22;7347;50.844;4.490;2023-07-29T19:44:55;20.40;99.90
14521;DHT22;7347;50.844;4.490;2023-07-29T19:47:23;20.40;99.90
14521;DHT22;7347;50.844;4.490;2023-07-29T19:49:50;20.40;99.90
14521;DHT22;7347;50.844;4.490;2023-07-29T19:52:16;20.30;99.90
14521;DHT22;7347;50.844;4.490;2023-07-29T19:54:43;20.30;99.90
14521;DHT22;7347;50.844;4.490;2023-07-29T19:57:11;20.20;99.90
14521;DHT22;7347;50.844;4.490;2023-07-29T19:59:38;20.20;99.90
14521;DHT22;7347;50.844;4.490;2023-07-29T20:02:05;20.20;99.90
14521;DHT22;7347;50.844;4.490;2023-07-29T20:04:33;20.00;99.90
14521;DHT22;7347;50.844;4.490;2023-07-29T20:07:00;19.90;99.90
14521;DHT22;7347;50.844;4.490;2023-07-29T20:09:26;19.90;99.90
14521;DHT22;7347;50.844;4.490;2023-07-29T20:11:53;19.80;99.90
14521;DHT22;7347;50.844;4.490;2023-07-29T20:14:20;19.70;99.90
14521;DHT22;7347;50.844;4.490;2023-07-29T20:16:47;19.70;99.90
14521;DHT22;7347;50.844;4.490;2023-07-29T20:19:14;19.70;99.90
14521;DHT22;7347;50.844;4.490;2023-07-29T20:21:42;19.60;99.90
14521;DHT22;7347;50.844;4.490;2023-07-29T20:24:08;19.60;99.90
14521;DHT22;7347;50.844;4.490;2023-07-29T20:26:35;19.50;99.90
14521;DHT22;7347;50.844;4.490;2023-07-29T20:29:02;19.50;99.90
14521;DHT22;7347;50.844;4.490;2023-07-29T20:31:29;19.50;99.90
14521;DHT22;7347;50.844;4.490;2023-07-29T20:33:56;19.50;99.90
14521;DHT22;7347;50.844;4.490;2023-07-29T20:36:23;19.40;99.90
14521;DHT22;7347;50.844;4.490;2023-07-29T20:38:54;19.30;99.90
14521;DHT22;7347;50.844;4.490;2023-07-29T20:41:21;19.30;99.90
14521;DHT22;7347;50.844;4.490;2023-07-29T20:43:49;19.30;99.90
14521;DHT22;7347;50.844;4.490;2023-07-29T20:46:19;19.20;99.90
14521;DHT22;7347;50.844;4.490;2023-07-29T20:48:46;19.10;99.90
14521;DHT22;7347;50.844;4.490;2023-07-29T20:51:15;19.10;99.90
14521;DHT22;7347;50.844;4.490;2023-07-29T20:53:42;19.10;99.90
14521;DHT22;7347;50.844;4.490;2023-07-29T20:56:11;19.10;99.90
